sensor_id;sensor_type;location;lat;lon;timestamp;temperature;humidity
52867;DHT22;38739;53.324;6.862;2023-05-10T00:01:05;14.00;99.90
52867;DHT22;38739;53.324;6.862;2023-05-10T00:03:31;14.00;99.90
52867;DHT22;38739;53.324;6.862;2023-05-10T00:05:56;14.00;99.90
52867;DHT22;38739;53.324;6.862;2023-05-10T00:08:23;14.00;99.90
52867;DHT22;38739;53.324;6.862;2023-05-10T00:10:49;14.00;99.90
52867;DHT22;38739;53.324;6.862;2023-05-10T00:13:14;14.00;99.90
52867;DHT22;38739;53.324;6.862;2023-05-10T00:15:40;14.00;99.90
52867;DHT22;38739;53.324;6.862;2023-05-10T00:18:06;14.00;99.90
52867;DHT22;38739;53.324;6.862;2023-05-10T00:20:32;14.00;99.90
52867;DHT22;38739;53.324;6.862;2023-05-10T00:22:57;14.00;99.90
52867;DHT22;38739;53.324;6.862;2023-05-10T00:25:23;13.90;99.90
52867;DHT22;38739;53.324;6.862;2023-05-10T00:27:49;14.00;99.90
52867;DHT22;38739;53.324;6.862;2023-05-10T00:30:16;13.90;99.90
52867;DHT22;38739;53.324;6.862;2023-05-10T00:32:41;13.90;99.90
52867;DHT22;38739;53.324;6.862;2023-05-10T00:35:08;13.80;99.90
52867;DHT22;38739;53.324;6.862;2023-05-10T00:37:35;13.80;99.90
52867;DHT22;38739;53.324;6.862;2023-05-10T00:40:00;13.70;99.90
52867;DHT22;38739;53.324;6.862;2023-05-10T00:42:26;13.70;99.90
52867;DHT22;38739;53.324;6.862;2023-05-10T00:44:52;13.70;99.90
52867;DHT22;38739;53.324;6.862;2023-05-10T00:47:17;13.70;99.90
52867;DHT22;38739;53.324;6.862;2023-05-10T00:49:43;13.60;99.90
52867;DHT22;38739;53.324;6.862;2023-05-10T00:52:10;13.60;99.90
52867;DHT22;38739;53.324;6.862;2023-05-10T00:54:36;13.50;99.90
52867;DHT22;38739;53.324;6.862;2023-05-10T00:57:02;13.50;99.90
52867;DHT22;38739;53.324;6.862;2023-05-10T00:59:29;13.50;99.90
52867;DHT22;38739;53.324;6.862;2023-05-10T01:01:55;13.50;99.90
52867;DHT22;38739;53.324;6.862;2023-05-10T01:04:20;13.40;99.90
52867;DHT22;38739;53.324;6.862;2023-05-10T01:06:52;13.40;99.90
52867;DHT22;38739;53.324;6.862;2023-05-10T01:09:19;13.30;99.90
52867;DHT22;38739;53.324;6.862;2023-05-10T01:11:46;13.30;99.90
52867;DHT22;38739;53.324;6.862;2023-05-10T01:14:11;13.30;99.90
52867;DHT22;38739;53.324;6.862;2023-05-10T01:16:39;13.30;99.90
52867;DHT22;38739;53.324;6.862;2023-05-10T01:19:26;13.30;99.90
52867;DHT22;38739;53.324;6.862;2023-05-10T01:33:23;13.20;99.90
52867;DHT22;38739;53.324;6.862;2023-05-10T01:36:03;13.20;99.90
52867;DHT22;38739;53.324;6.862;2023-05-10T01:38:50;13.20;99.90
52867;DHT22;38739;53.324;6.862;2023-05-10T01:41:18;13.20;99.90
52867;DHT22;38739;53.324;6.862;2023-05-10T01:46:41;13.20;99.90
52867;DHT22;38739;53.324;6.862;2023-05-10T01:49:24;13.10;99.90
52867;DHT22;38739;53.324;6.862;2023-05-10T01:51:54;13.10;99.90
52867;DHT22;38739;53.324;6.862;2023-05-10T01:54:24;13.10;99.90
52867;DHT22;38739;53.324;6.862;2023-05-10T01:56:55;13.10;99.90
52867;DHT22;38739;53.324;6.862;2023-05-10T01:59:28;13.10;99.90
52867;DHT22;38739;53.324;6.862;2023-05-10T02:01:57;13.10;99.90
52867;DHT22;38739;53.324;6.862;2023-05-10T02:04:24;13.10;99.90
52867;DHT22;38739;53.324;6.862;2023-05-10T02:06:51;13.00;99.90
52867;DHT22;38739;53.324;6.862;2023-05-10T02:09:18;13.00;99.90
52867;DHT22;38739;53.324;6.862;2023-05-10T02:11:48;13.00;99.90
52867;DHT22;38739;53.324;6.862;2023-05-10T02:14:15;13.00;99.90
52867;DHT22;38739;53.324;6.862;2023-05-10T02:16:43;13.00;99.90
52867;DHT22;38739;53.324;6.862;2023-05-10T02:19:10;13.00;99.90
52867;DHT22;38739;53.324;6.862;2023-05-10T02:21:39;13.00;99.90
52867;DHT22;38739;53.324;6.862;2023-05-10T02:24:06;13.00;99.90
52867;DHT22;38739;53.324;6.862;2023-05-10T02:26:35;13.00;99.90
52867;DHT22;38739;53.324;6.862;2023-05-10T02:29:02;12.90;99.90
52867;DHT22;38739;53.324;6.862;2023-05-10T02:31:30;12.90;99.90
52867;DHT22;38739;53.324;6.862;2023-05-10T02:33:58;12.90;99.90
52867;DHT22;38739;53.324;6.862;2023-05-10T02:36:24;12.90;99.90
52867;DHT22;38739;53.324;6.862;2023-05-10T02:38:53;12.90;99.90
52867;DHT22;38739;53.324;6.862;2023-05-10T02:41:20;12.90;99.90
52867;DHT22;38739;53.324;6.862;2023-05-10T02:43:50;12.90;99.90
52867;DHT22;38739;53.324;6.862;2023-05-10T02:46:17;12.90;99.90
52867;DHT22;38739;53.324;6.862;2023-05-10T02:48:44;12.80;99.90
52867;DHT22;38739;53.324;6.862;2023-05-10T02:51:11;12.90;99.90
52867;DHT22;38739;53.324;6.862;2023-05-10T02:53:41;12.80;99.90
52867;DHT22;38739;53.324;6.862;2023-05-10T02:56:20;12.90;99.90
52867;DHT22;38739;53.324;6.862;2023-05-10T02:58:49;12.80;99.90
52867;DHT22;38739;53.324;6.862;2023-05-10T03:01:14;12.80;99.90
52867;DHT22;38739;53.324;6.862;2023-05-10T03:03:40;12.80;99.90
52867;DHT22;38739;53.324;6.862;2023-05-10T03:06:07;12.80;99.90
52867;DHT22;38739;53.324;6.862;2023-05-10T03:08:32;12.80;99.90
52867;DHT22;38739;53.324;6.862;2023-05-10T03:11:32;12.80;99.90
52867;DHT22;38739;53.324;6.862;2023-05-10T03:16:45;12.70;99.90
52867;DHT22;38739;53.324;6.862;2023-05-10T03:19:24;12.80;99.90
52867;DHT22;38739;53.324;6.862;2023-05-10T03:21:53;12.70;99.90
52867;DHT22;38739;53.324;6.862;2023-05-10T03:24:23;12.80;99.90
52867;DHT22;38739;53.324;6.862;2023-05-10T03:26:54;12.70;99.90
52867;DHT22;38739;53.324;6.862;2023-05-10T03:29:22;12.70;99.90
52867;DHT22;38739;53.324;6.862;2023-05-10T03:31:48;12.70;99.90
52867;DHT22;38739;53.324;6.862;2023-05-10T03:34:13;12.70;99.90
52867;DHT22;38739;53.324;6.862;2023-05-10T03:36:39;12.70;99.90
52867;DHT22;38739;53.324;6.862;2023-05-10T03:39:05;12.70;99.90
52867;DHT22;38739;53.324;6.862;2023-05-10T03:41:30;12.70;99.90
52867;DHT22;38739;53.324;6.862;2023-05-10T03:43:56;12.70;99.90
52867;DHT22;38739;53.324;6.862;2023-05-10T03:46:22;12.70;99.90
52867;DHT22;38739;53.324;6.862;2023-05-10T03:48:47;12.70;99.90
52867;DHT22;38739;53.324;6.862;2023-05-10T03:51:13;12.70;99.90
52867;DHT22;38739;53.324;6.862;2023-05-10T03:53:38;12.70;99.90
52867;DHT22;38739;53.324;6.862;2023-05-10T03:56:04;12.70;99.90
52867;DHT22;38739;53.324;6.862;2023-05-10T03:58:30;12.60;99.90
52867;DHT22;38739;53.324;6.862;2023-05-10T04:00:56;12.60;99.90
52867;DHT22;38739;53.324;6.862;2023-05-10T04:03:21;12.60;99.90
52867;DHT22;38739;53.324;6.862;2023-05-10T04:05:47;12.60;99.90
52867;DHT22;38739;53.324;6.862;2023-05-10T04:08:13;12.60;99.90
52867;DHT22;38739;53.324;6.862;2023-05-10T04:10:40;12.60;99.90
52867;DHT22;38739;53.324;6.862;2023-05-10T04:13:05;12.60;99.90
52867;DHT22;38739;53.324;6.862;2023-05-10T04:15:31;12.60;99.90
52867;DHT22;38739;53.324;6.862;2023-05-10T04:17:57;12.60;99.90
52867;DHT22;38739;53.324;6.862;2023-05-10T04:20:22;12.60;99.90
52867;DHT22;38739;53.324;6.862;2023-05-10T04:22:48;12.50;99.90
52867;DHT22;38739;53.324;6.862;2023-05-10T04:25:14;12.60;99.90
52867;DHT22;38739;53.324;6.862;2023-05-10T04:27:40;12.60;99.90
52867;DHT22;38739;53.324;6.862;2023-05-10T04:30:06;12.50;99.90
52867;DHT22;38739;53.324;6.862;2023-05-10T04:32:32;12.50;99.90
52867;DHT22;38739;53.324;6.862;2023-05-10T04:34:57;12.50;99.90
52867;DHT22;38739;53.324;6.862;2023-05-10T04:37:23;12.50;99.90
52867;DHT22;38739;53.324;6.862;2023-05-10T04:39:49;12.50;99.90
52867;DHT22;38739;53.324;6.862;2023-05-10T04:42:15;12.50;99.90
52867;DHT22;38739;53.324;6.862;2023-05-10T04:44:41;12.50;99.90
52867;DHT22;38739;53.324;6.862;2023-05-10T04:47:07;12.50;99.90
52867;DHT22;38739;53.324;6.862;2023-05-10T04:49:32;12.50;99.90
52867;DHT22;38739;53.324;6.862;2023-05-10T04:51:58;12.50;99.90
52867;DHT22;38739;53.324;6.862;2023-05-10T04:54:24;12.50;99.90
52867;DHT22;38739;53.324;6.862;2023-05-10T04:56:49;12.50;99.90
52867;DHT22;38739;53.324;6.862;2023-05-10T04:59:15;12.50;99.90
52867;DHT22;38739;53.324;6.862;2023-05-10T05:01:41;12.50;99.90
52867;DHT22;38739;53.324;6.862;2023-05-10T05:04:06;12.40;99.90
52867;DHT22;38739;53.324;6.862;2023-05-10T05:06:32;12.50;99.90
52867;DHT22;38739;53.324;6.862;2023-05-10T05:08:58;12.50;99.90
52867;DHT22;38739;53.324;6.862;2023-05-10T05:11:24;12.50;99.90
52867;DHT22;38739;53.324;6.862;2023-05-10T05:13:50;12.50;99.90
52867;DHT22;38739;53.324;6.862;2023-05-10T05:16:16;12.50;99.90
52867;DHT22;38739;53.324;6.862;2023-05-10T05:18:42;12.50;99.90
52867;DHT22;38739;53.324;6.862;2023-05-10T05:21:18;12.50;99.90
52867;DHT22;38739;53.324;6.862;2023-05-10T05:23:44;12.50;99.90
52867;DHT22;38739;53.324;6.862;2023-05-10T05:26:10;12.60;99.90
52867;DHT22;38739;53.324;6.862;2023-05-10T05:28:36;12.60;99.90
52867;DHT22;38739;53.324;6.862;2023-05-10T05:31:06;12.60;99.90
52867;DHT22;38739;53.324;6.862;2023-05-10T05:33:31;12.60;99.90
52867;DHT22;38739;53.324;6.862;2023-05-10T05:35:57;12.60;99.90
52867;DHT22;38739;53.324;6.862;2023-05-10T05:38:25;12.60;99.90
52867;DHT22;38739;53.324;6.862;2023-05-10T05:40:51;12.60;99.90
52867;DHT22;38739;53.324;6.862;2023-05-10T05:43:17;12.60;99.90
52867;DHT22;38739;53.324;6.862;2023-05-10T05:45:42;12.60;99.90
52867;DHT22;38739;53.324;6.862;2023-05-10T05:48:08;12.60;99.90
52867;DHT22;38739;53.324;6.862;2023-05-10T05:50:34;12.60;99.90
52867;DHT22;38739;53.324;6.862;2023-05-10T05:52:59;12.60;99.90
52867;DHT22;38739;53.324;6.862;2023-05-10T05:55:25;12.60;99.90
52867;DHT22;38739;53.324;6.862;2023-05-10T05:57:51;12.60;99.90
52867;DHT22;38739;53.324;6.862;2023-05-10T06:00:17;12.50;99.90
52867;DHT22;38739;53.324;6.862;2023-05-10T06:02:43;12.50;99.90
52867;DHT22;38739;53.324;6.862;2023-05-10T06:05:09;12.60;99.90
52867;DHT22;38739;53.324;6.862;2023-05-10T06:07:34;12.60;99.90
52867;DHT22;38739;53.324;6.862;2023-05-10T06:10:00;12.60;99.90
52867;DHT22;38739;53.324;6.862;2023-05-10T06:12:26;12.60;99.90
52867;DHT22;38739;53.324;6.862;2023-05-10T06:14:52;12.60;99.90
52867;DHT22;38739;53.324;6.862;2023-05-10T06:17:17;12.60;99.90
52867;DHT22;38739;53.324;6.862;2023-05-10T06:19:43;12.60;99.90
52867;DHT22;38739;53.324;6.862;2023-05-10T06:22:09;12.60;99.90
52867;DHT22;38739;53.324;6.862;2023-05-10T06:24:34;12.60;99.90
52867;DHT22;38739;53.324;6.862;2023-05-10T06:27:00;12.70;99.90
52867;DHT22;38739;53.324;6.862;2023-05-10T06:29:26;12.70;99.90
52867;DHT22;38739;53.324;6.862;2023-05-10T06:31:52;12.70;99.90
52867;DHT22;38739;53.324;6.862;2023-05-10T06:34:18;12.70;99.90
52867;DHT22;38739;53.324;6.862;2023-05-10T06:36:43;12.70;99.90
52867;DHT22;38739;53.324;6.862;2023-05-10T06:39:09;12.70;99.90
52867;DHT22;38739;53.324;6.862;2023-05-10T06:41:37;12.70;99.90
52867;DHT22;38739;53.324;6.862;2023-05-10T06:44:03;12.80;99.90
52867;DHT22;38739;53.324;6.862;2023-05-10T06:46:29;12.90;99.90
52867;DHT22;38739;53.324;6.862;2023-05-10T06:48:54;12.80;99.90
52867;DHT22;38739;53.324;6.862;2023-05-10T06:51:20;12.90;99.90
52867;DHT22;38739;53.324;6.862;2023-05-10T06:53:46;12.90;99.90
52867;DHT22;38739;53.324;6.862;2023-05-10T06:56:12;12.90;99.90
52867;DHT22;38739;53.324;6.862;2023-05-10T06:58:38;12.90;99.90
52867;DHT22;38739;53.324;6.862;2023-05-10T07:01:07;12.90;99.90
52867;DHT22;38739;53.324;6.862;2023-05-10T07:03:32;12.90;99.90
52867;DHT22;38739;53.324;6.862;2023-05-10T07:06:05;12.90;99.90
52867;DHT22;38739;53.324;6.862;2023-05-10T07:08:32;12.90;99.90
52867;DHT22;38739;53.324;6.862;2023-05-10T07:11:03;12.90;99.90
52867;DHT22;38739;53.324;6.862;2023-05-10T07:13:30;12.80;99.90
52867;DHT22;38739;53.324;6.862;2023-05-10T07:15:56;12.80;99.90
52867;DHT22;38739;53.324;6.862;2023-05-10T07:18:22;12.90;99.90
52867;DHT22;38739;53.324;6.862;2023-05-10T07:20:48;12.90;99.90
52867;DHT22;38739;53.324;6.862;2023-05-10T07:23:13;12.90;99.90
52867;DHT22;38739;53.324;6.862;2023-05-10T07:25:39;12.90;99.90
52867;DHT22;38739;53.324;6.862;2023-05-10T07:28:05;12.90;99.90
52867;DHT22;38739;53.324;6.862;2023-05-10T07:30:31;12.90;99.90
52867;DHT22;38739;53.324;6.862;2023-05-10T07:32:56;12.90;99.90
52867;DHT22;38739;53.324;6.862;2023-05-10T07:35:22;12.90;99.90
52867;DHT22;38739;53.324;6.862;2023-05-10T07:37:48;12.90;99.90
52867;DHT22;38739;53.324;6.862;2023-05-10T07:40:13;12.90;99.90
52867;DHT22;38739;53.324;6.862;2023-05-10T07:42:39;12.90;99.90
52867;DHT22;38739;53.324;6.862;2023-05-10T07:45:06;12.90;99.90
52867;DHT22;38739;53.324;6.862;2023-05-10T07:47:31;12.90;99.90
52867;DHT22;38739;53.324;6.862;2023-05-10T07:49:57;12.80;99.90
52867;DHT22;38739;53.324;6.862;2023-05-10T07:52:23;12.80;99.90
52867;DHT22;38739;53.324;6.862;2023-05-10T07:54:48;12.80;99.90
52867;DHT22;38739;53.324;6.862;2023-05-10T07:57:15;12.70;99.90
52867;DHT22;38739;53.324;6.862;2023-05-10T07:59:43;12.80;99.90
52867;DHT22;38739;53.324;6.862;2023-05-10T08:02:09;12.70;99.90
52867;DHT22;38739;53.324;6.862;2023-05-10T08:04:35;12.80;99.90
52867;DHT22;38739;53.324;6.862;2023-05-10T08:07:01;12.80;99.90
52867;DHT22;38739;53.324;6.862;2023-05-10T08:09:26;12.80;99.90
52867;DHT22;38739;53.324;6.862;2023-05-10T08:11:52;12.80;99.90
52867;DHT22;38739;53.324;6.862;2023-05-10T08:14:18;12.80;99.90
52867;DHT22;38739;53.324;6.862;2023-05-10T08:16:43;12.80;99.90
52867;DHT22;38739;53.324;6.862;2023-05-10T08:19:09;12.90;99.90
52867;DHT22;38739;53.324;6.862;2023-05-10T08:21:35;12.90;99.90
52867;DHT22;38739;53.324;6.862;2023-05-10T08:24:01;12.90;99.90
52867;DHT22;38739;53.324;6.862;2023-05-10T08:26:27;13.00;99.90
52867;DHT22;38739;53.324;6.862;2023-05-10T08:28:53;13.00;99.90
52867;DHT22;38739;53.324;6.862;2023-05-10T08:31:18;13.00;99.90
52867;DHT22;38739;53.324;6.862;2023-05-10T08:33:44;13.00;99.90
52867;DHT22;38739;53.324;6.862;2023-05-10T08:36:10;13.00;99.90
52867;DHT22;38739;53.324;6.862;2023-05-10T08:38:37;13.10;99.90
52867;DHT22;38739;53.324;6.862;2023-05-10T08:41:04;13.10;99.90
52867;DHT22;38739;53.324;6.862;2023-05-10T08:43:31;13.10;99.90
52867;DHT22;38739;53.324;6.862;2023-05-10T08:46:00;13.20;99.90
52867;DHT22;38739;53.324;6.862;2023-05-10T08:48:29;13.20;99.90
52867;DHT22;38739;53.324;6.862;2023-05-10T08:50:58;13.20;99.90
52867;DHT22;38739;53.324;6.862;2023-05-10T08:53:25;13.20;99.90
52867;DHT22;38739;53.324;6.862;2023-05-10T08:55:53;13.10;99.90
52867;DHT22;38739;53.324;6.862;2023-05-10T08:58:19;13.20;99.90
52867;DHT22;38739;53.324;6.862;2023-05-10T09:00:46;13.20;99.90
52867;DHT22;38739;53.324;6.862;2023-05-10T09:03:12;13.20;99.90
52867;DHT22;38739;53.324;6.862;2023-05-10T09:05:38;13.20;99.90
52867;DHT22;38739;53.324;6.862;2023-05-10T09:08:05;13.20;99.90
52867;DHT22;38739;53.324;6.862;2023-05-10T09:10:31;13.30;99.90
52867;DHT22;38739;53.324;6.862;2023-05-10T09:12:58;13.30;99.90
52867;DHT22;38739;53.324;6.862;2023-05-10T09:15:24;13.40;99.90
52867;DHT22;38739;53.324;6.862;2023-05-10T09:17:50;13.40;99.90
52867;DHT22;38739;53.324;6.862;2023-05-10T09:20:16;13.40;99.90
52867;DHT22;38739;53.324;6.862;2023-05-10T09:22:43;13.40;99.90
52867;DHT22;38739;53.324;6.862;2023-05-10T09:25:11;13.30;99.90
52867;DHT22;38739;53.324;6.862;2023-05-10T09:27:39;13.40;99.90
52867;DHT22;38739;53.324;6.862;2023-05-10T09:30:05;13.40;99.90
52867;DHT22;38739;53.324;6.862;2023-05-10T09:32:47;13.40;99.90
52867;DHT22;38739;53.324;6.862;2023-05-10T09:35:15;13.40;99.90
52867;DHT22;38739;53.324;6.862;2023-05-10T09:37:46;13.40;99.90
52867;DHT22;38739;53.324;6.862;2023-05-10T09:40:15;13.50;99.90
52867;DHT22;38739;53.324;6.862;2023-05-10T09:43:10;13.60;99.90
52867;DHT22;38739;53.324;6.862;2023-05-10T09:45:36;13.70;99.90
52867;DHT22;38739;53.324;6.862;2023-05-10T09:48:03;13.80;99.90
52867;DHT22;38739;53.324;6.862;2023-05-10T09:50:30;13.80;99.90
52867;DHT22;38739;53.324;6.862;2023-05-10T09:52:57;13.80;99.90
52867;DHT22;38739;53.324;6.862;2023-05-10T09:58:06;13.90;99.90
52867;DHT22;38739;53.324;6.862;2023-05-10T10:00:44;13.90;99.90
52867;DHT22;38739;53.324;6.862;2023-05-10T10:03:17;13.90;99.90
52867;DHT22;38739;53.324;6.862;2023-05-10T10:05:43;13.90;99.90
52867;DHT22;38739;53.324;6.862;2023-05-10T10:08:10;13.80;99.90
52867;DHT22;38739;53.324;6.862;2023-05-10T10:10:36;13.80;99.90
52867;DHT22;38739;53.324;6.862;2023-05-10T10:13:02;13.90;99.90
52867;DHT22;38739;53.324;6.862;2023-05-10T10:15:28;13.90;99.90
52867;DHT22;38739;53.324;6.862;2023-05-10T10:17:54;14.00;99.90
52867;DHT22;38739;53.324;6.862;2023-05-10T10:20:21;14.10;99.90
52867;DHT22;38739;53.324;6.862;2023-05-10T10:22:48;14.10;99.90
52867;DHT22;38739;53.324;6.862;2023-05-10T10:25:16;14.10;99.90
52867;DHT22;38739;53.324;6.862;2023-05-10T10:30:41;14.10;99.90
52867;DHT22;38739;53.324;6.862;2023-05-10T10:36:02;14.20;99.90
52867;DHT22;38739;53.324;6.862;2023-05-10T10:41:28;14.20;99.90
52867;DHT22;38739;53.324;6.862;2023-05-10T10:55:03;14.40;99.90
52867;DHT22;38739;53.324;6.862;2023-05-10T10:57:54;14.40;99.90
52867;DHT22;38739;53.324;6.862;2023-05-10T11:00:30;14.50;99.90
52867;DHT22;38739;53.324;6.862;2023-05-10T11:03:06;14.50;99.90
52867;DHT22;38739;53.324;6.862;2023-05-10T11:05:45;14.50;99.90
52867;DHT22;38739;53.324;6.862;2023-05-10T11:13:45;14.70;99.90
52867;DHT22;38739;53.324;6.862;2023-05-10T11:19:06;14.90;99.90
52867;DHT22;38739;53.324;6.862;2023-05-10T11:21:33;15.10;99.90
52867;DHT22;38739;53.324;6.862;2023-05-10T11:24:01;15.20;99.90
52867;DHT22;38739;53.324;6.862;2023-05-10T11:26:32;15.30;99.90
52867;DHT22;38739;53.324;6.862;2023-05-10T11:28:59;15.30;99.90
52867;DHT22;38739;53.324;6.862;2023-05-10T11:31:28;15.30;99.90
52867;DHT22;38739;53.324;6.862;2023-05-10T11:33:55;15.30;99.90
52867;DHT22;38739;53.324;6.862;2023-05-10T11:36:25;15.40;99.90
52867;DHT22;38739;53.324;6.862;2023-05-10T11:38:51;15.30;99.90
52867;DHT22;38739;53.324;6.862;2023-05-10T11:41:18;15.40;99.90
52867;DHT22;38739;53.324;6.862;2023-05-10T11:43:49;15.40;99.90
52867;DHT22;38739;53.324;6.862;2023-05-10T11:46:15;15.50;99.90
52867;DHT22;38739;53.324;6.862;2023-05-10T11:48:42;15.50;99.90
52867;DHT22;38739;53.324;6.862;2023-05-10T11:51:09;15.50;99.90
52867;DHT22;38739;53.324;6.862;2023-05-10T11:53:35;15.60;99.90
52867;DHT22;38739;53.324;6.862;2023-05-10T11:56:08;15.60;99.90
52867;DHT22;38739;53.324;6.862;2023-05-10T11:58:35;15.70;99.90
52867;DHT22;38739;53.324;6.862;2023-05-10T12:01:01;15.70;99.90
52867;DHT22;38739;53.324;6.862;2023-05-10T12:03:27;15.70;99.90
52867;DHT22;38739;53.324;6.862;2023-05-10T12:05:54;15.80;99.90
52867;DHT22;38739;53.324;6.862;2023-05-10T12:08:25;15.90;99.90
52867;DHT22;38739;53.324;6.862;2023-05-10T12:10:53;16.00;99.90
52867;DHT22;38739;53.324;6.862;2023-05-10T12:13:19;16.00;99.90
52867;DHT22;38739;53.324;6.862;2023-05-10T12:15:46;16.10;99.90
52867;DHT22;38739;53.324;6.862;2023-05-10T12:18:13;16.10;99.90
52867;DHT22;38739;53.324;6.862;2023-05-10T12:20:40;16.10;99.90
52867;DHT22;38739;53.324;6.862;2023-05-10T12:23:07;16.10;99.90
52867;DHT22;38739;53.324;6.862;2023-05-10T12:25:35;16.10;99.90
52867;DHT22;38739;53.324;6.862;2023-05-10T12:28:06;16.30;99.90
52867;DHT22;38739;53.324;6.862;2023-05-10T12:30:33;16.30;99.90
52867;DHT22;38739;53.324;6.862;2023-05-10T12:33:07;16.40;99.90
52867;DHT22;38739;53.324;6.862;2023-05-10T12:35:38;16.50;99.90
52867;DHT22;38739;53.324;6.862;2023-05-10T12:38:38;16.60;99.90
52867;DHT22;38739;53.324;6.862;2023-05-10T12:41:09;16.80;99.90
52867;DHT22;38739;53.324;6.862;2023-05-10T12:43:36;16.90;99.90
52867;DHT22;38739;53.324;6.862;2023-05-10T12:46:16;17.00;99.90
52867;DHT22;38739;53.324;6.862;2023-05-10T12:48:43;17.00;99.90
52867;DHT22;38739;53.324;6.862;2023-05-10T12:51:09;17.10;99.90
52867;DHT22;38739;53.324;6.862;2023-05-10T12:53:38;17.00;99.90
52867;DHT22;38739;53.324;6.862;2023-05-10T12:56:04;17.00;99.90
52867;DHT22;38739;53.324;6.862;2023-05-10T12:58:30;17.00;99.90
52867;DHT22;38739;53.324;6.862;2023-05-10T13:00:58;16.90;99.90
52867;DHT22;38739;53.324;6.862;2023-05-10T13:03:24;16.80;99.90
52867;DHT22;38739;53.324;6.862;2023-05-10T13:05:49;16.80;99.90
52867;DHT22;38739;53.324;6.862;2023-05-10T13:08:15;16.70;99.90
52867;DHT22;38739;53.324;6.862;2023-05-10T13:10:41;16.70;99.90
52867;DHT22;38739;53.324;6.862;2023-05-10T13:13:07;16.70;99.90
52867;DHT22;38739;53.324;6.862;2023-05-10T13:15:36;16.60;99.90
52867;DHT22;38739;53.324;6.862;2023-05-10T13:18:01;16.50;99.90
52867;DHT22;38739;53.324;6.862;2023-05-10T13:20:27;16.50;99.90
52867;DHT22;38739;53.324;6.862;2023-05-10T13:22:53;16.40;99.90
52867;DHT22;38739;53.324;6.862;2023-05-10T13:25:19;16.30;99.90
52867;DHT22;38739;53.324;6.862;2023-05-10T13:27:45;16.30;99.90
52867;DHT22;38739;53.324;6.862;2023-05-10T13:30:11;16.30;99.90
52867;DHT22;38739;53.324;6.862;2023-05-10T13:32:37;16.30;99.90
52867;DHT22;38739;53.324;6.862;2023-05-10T13:35:03;16.30;99.90
52867;DHT22;38739;53.324;6.862;2023-05-10T13:37:30;16.40;99.90
52867;DHT22;38739;53.324;6.862;2023-05-10T13:39:56;16.40;99.90
52867;DHT22;38739;53.324;6.862;2023-05-10T13:42:24;16.40;99.90
52867;DHT22;38739;53.324;6.862;2023-05-10T13:44:50;16.50;99.90
52867;DHT22;38739;53.324;6.862;2023-05-10T13:47:16;16.50;99.90
52867;DHT22;38739;53.324;6.862;2023-05-10T13:49:42;16.60;99.90
52867;DHT22;38739;53.324;6.862;2023-05-10T13:52:08;16.60;99.90
52867;DHT22;38739;53.324;6.862;2023-05-10T13:54:36;16.60;99.90
52867;DHT22;38739;53.324;6.862;2023-05-10T13:57:02;16.60;99.90
52867;DHT22;38739;53.324;6.862;2023-05-10T13:59:28;16.70;99.90
52867;DHT22;38739;53.324;6.862;2023-05-10T14:01:54;16.80;99.90
52867;DHT22;38739;53.324;6.862;2023-05-10T14:04:20;16.80;99.90
52867;DHT22;38739;53.324;6.862;2023-05-10T14:06:46;16.90;99.90
52867;DHT22;38739;53.324;6.862;2023-05-10T14:09:12;16.90;99.90
52867;DHT22;38739;53.324;6.862;2023-05-10T14:11:40;17.00;99.90
52867;DHT22;38739;53.324;6.862;2023-05-10T14:14:09;17.10;99.90
52867;DHT22;38739;53.324;6.862;2023-05-10T14:16:34;17.30;99.90
52867;DHT22;38739;53.324;6.862;2023-05-10T14:19:00;17.50;99.90
52867;DHT22;38739;53.324;6.862;2023-05-10T14:21:27;17.70;99.90
52867;DHT22;38739;53.324;6.862;2023-05-10T14:23:54;17.90;99.90
52867;DHT22;38739;53.324;6.862;2023-05-10T14:26:20;18.20;99.90
52867;DHT22;38739;53.324;6.862;2023-05-10T14:28:47;18.50;99.90
52867;DHT22;38739;53.324;6.862;2023-05-10T14:31:12;18.80;99.90
52867;DHT22;38739;53.324;6.862;2023-05-10T14:33:39;18.70;99.90
52867;DHT22;38739;53.324;6.862;2023-05-10T14:36:06;18.90;99.90
52867;DHT22;38739;53.324;6.862;2023-05-10T14:38:32;19.00;99.90
52867;DHT22;38739;53.324;6.862;2023-05-10T14:40:58;19.00;99.90
52867;DHT22;38739;53.324;6.862;2023-05-10T14:43:24;18.90;99.90
52867;DHT22;38739;53.324;6.862;2023-05-10T14:45:49;18.80;99.90
52867;DHT22;38739;53.324;6.862;2023-05-10T14:48:15;18.70;99.90
52867;DHT22;38739;53.324;6.862;2023-05-10T14:50:43;18.50;99.90
52867;DHT22;38739;53.324;6.862;2023-05-10T14:53:09;18.40;99.90
52867;DHT22;38739;53.324;6.862;2023-05-10T14:55:35;18.40;99.90
52867;DHT22;38739;53.324;6.862;2023-05-10T14:58:02;18.40;99.90
52867;DHT22;38739;53.324;6.862;2023-05-10T15:00:29;18.50;99.90
52867;DHT22;38739;53.324;6.862;2023-05-10T15:02:55;18.50;99.90
52867;DHT22;38739;53.324;6.862;2023-05-10T15:05:21;18.50;99.90
52867;DHT22;38739;53.324;6.862;2023-05-10T15:07:47;18.50;99.90
52867;DHT22;38739;53.324;6.862;2023-05-10T15:10:13;18.70;99.90
52867;DHT22;38739;53.324;6.862;2023-05-10T15:12:39;18.60;99.90
52867;DHT22;38739;53.324;6.862;2023-05-10T15:15:05;18.50;99.90
52867;DHT22;38739;53.324;6.862;2023-05-10T15:17:32;18.50;99.90
52867;DHT22;38739;53.324;6.862;2023-05-10T15:19:57;18.50;99.90
52867;DHT22;38739;53.324;6.862;2023-05-10T15:22:23;18.60;99.90
52867;DHT22;38739;53.324;6.862;2023-05-10T15:24:49;18.60;99.90
52867;DHT22;38739;53.324;6.862;2023-05-10T15:27:15;18.60;99.90
52867;DHT22;38739;53.324;6.862;2023-05-10T15:29:41;18.70;99.90
52867;DHT22;38739;53.324;6.862;2023-05-10T15:32:06;18.90;99.90
52867;DHT22;38739;53.324;6.862;2023-05-10T15:34:32;18.90;99.90
52867;DHT22;38739;53.324;6.862;2023-05-10T15:36:58;18.90;99.90
52867;DHT22;38739;53.324;6.862;2023-05-10T15:39:24;18.80;99.90
52867;DHT22;38739;53.324;6.862;2023-05-10T15:41:50;18.60;99.90
52867;DHT22;38739;53.324;6.862;2023-05-10T15:44:16;18.50;99.90
52867;DHT22;38739;53.324;6.862;2023-05-10T15:46:42;18.50;99.90
52867;DHT22;38739;53.324;6.862;2023-05-10T15:49:07;18.50;99.90
52867;DHT22;38739;53.324;6.862;2023-05-10T15:51:33;18.50;99.90
52867;DHT22;38739;53.324;6.862;2023-05-10T15:53:59;18.50;99.90
52867;DHT22;38739;53.324;6.862;2023-05-10T15:56:27;18.50;99.90
52867;DHT22;38739;53.324;6.862;2023-05-10T15:58:53;18.50;99.90
52867;DHT22;38739;53.324;6.862;2023-05-10T16:01:18;18.30;99.90
52867;DHT22;38739;53.324;6.862;2023-05-10T16:03:44;18.20;99.90
52867;DHT22;38739;53.324;6.862;2023-05-10T16:06:10;18.00;99.90
52867;DHT22;38739;53.324;6.862;2023-05-10T16:08:35;17.80;99.90
52867;DHT22;38739;53.324;6.862;2023-05-10T16:11:01;17.60;99.90
52867;DHT22;38739;53.324;6.862;2023-05-10T16:13:28;17.60;99.90
52867;DHT22;38739;53.324;6.862;2023-05-10T16:15:53;17.40;99.90
52867;DHT22;38739;53.324;6.862;2023-05-10T16:18:19;17.30;99.90